Sebastopol, CA (95472)

3:49 PM PDT on September 19, 2014 (GMT -0700)
Graton South | Change Station
CLOSE
Current Station
Personal Weather Station
Location: Sebastopol, CA
Elevation: 128 ft
Nearby Weather Stations

Elev 128 ft 38.41 °N, 122.86 °W | Updated 1 minute ago

Clear
Clear
70.9 °F
Feels Like 74 °F
N
8.5
Wind Variable Wind from SW
Gusts 19.9 mph

Today
High -- | Low -- °F
--% Chance of Precip.
Yesterday
High -- | Low -- °F
Precip. -- in
6:56 AM 7:12 PM
Waning Crescent, 16% visible
Pressure 29.81 in
Visibility 10.0 miles
Clouds Clear
Heat Index 74 °F
Dew Point 61 °F
Humidity 71%
Rainfall 0.11 in
Snow Depth 1 in , 0 in
UV 6 out of 12
Pollen 4.70 out of 12
Air Quality Not available.
Flu Activity Not available.
METAR KSTS 192153Z 15008KT 10SM CLR 26/17 A2983 RMK AO2 SLP095 T02610167

More Conditions Fewer Conditions

Pressure 29.81 in
Visibility 10.0 miles
Clouds Clear
Heat Index 74 °F
Dew Point 61 °F
Humidity 71%
Rainfall 0.11 in
Snow Depth 1 in , 0 in
UV 6 out of 12
Pollen 4.70 out of 12
Air Quality Not available.
Flu Activity Not available.
METAR KSTS 192153Z 15008KT 10SM CLR 26/17 A2983 RMK AO2 SLP095 T02610167

More Conditions Fewer Conditions

10-Day Weather Forecast

Almanac

Astronomy

Sep. 19, 2014 Rise Set
Actual Time 6:56 AM PDT 7:12 PM PDT
Civil Twilight 6:30 AM PDT 7:39 PM PDT
Nautical Twilight 5:59 AM PDT 8:10 PM PDT
Astronomical Twilight 5:27 AM PDT 8:41 PM PDT
Moon 2:49 AM PDT 4:42 PM PDT
Length of Visible Light 13h 09m
Length of Day
12h 16m
Tomorrow will be 2m 28s shorter.
Waning Crescent, 16% of the Moon is Illuminated
Today
Waning Crescent
Sep 24
New
Oct 1
First Quarter
Oct 8
Full
Oct 15
Last Quarter

Today's Extremes

State Highs State Lows

Community

WunderPhotos

Upload Photos

1,754,722 photos uploaded!

WunderBlogs® & News

By Dr. Jeff Masters
Director of Meteorology, Weather Underground
By Kari Strenfel
Meteorologist, Weather Underground
By Christopher C. Burt
Weather Historian, Weather Underground
September 19, 2014
September 19, 2014
September 19, 2014

Nearby

Air Quality

  Air Quality AQ Index Pollutant
Friday Good
PM2.5
Saturday Moderate
PM2.5
Sunday Moderate
PM2.5
Monday Moderate
PM2.5
Tuesday Moderate
PM2.5
Wednesday Moderate
PM2.5

Snow Depth

Station Depth Elevation
CSS Lab 1 in 6900 ft
Adin Mountain 1 in 6200 ft
Burnside Lake 0 in 8139 ft
Leavitt Meadows 0 in 7200 ft
Summit Meadow 0 in 9122 ft

Earthquake Activity

City Distance Mag. Time & Date
Livermore, California 78 miles 2.6 3:37 AM PDT
2014-09-19
The Geysers, California 25 miles 2.5 11:29 PM PDT
2014-09-17
Cobb, California 27 miles 2.7 1:23 PM PDT
2014-09-16
Minimum magnitude displayed is 2.5.

Coastal Water Temperatures

Place Temperature
Point Reyes, CA 66.0 °F
Arena Cove, CA 62.1 °F
San Francisco, CA 66.0 °F
Richmond, CA 66.9 °F

Nearby Weather Stations